Time;durP1;ratioP1;P1;durP2;ratioP2;P2;SDS_P1;SDS_P2;PMS_P1;PMS_P2;Temp;Humidity;BMP_temperature;BMP_pressure;BME280_temperature;BME280_humidity;BME280_pressure;Samples;Min_cycle;Max_cycle;Signal;HPM_P1;HPM_P2
2021/08/31 00:00:20;;;;;;;16.23;12.75;;;;;;;15.38;90.59;102363.50;5075611;28;20024;-36
2021/08/31 00:02:46;;;;;;;15.63;13.33;;;;;;;15.37;91.25;102359.94;5076105;28;20024;-36
2021/08/31 00:05:13;;;;;;;19.65;13.95;;;;;;;15.34;90.67;102349.47;5075690;28;20277;-36
2021/08/31 00:07:38;;;;;;;14.27;12.45;;;;;;;15.42;91.13;102359.22;5075677;28;20034;-36
2021/08/31 00:10:05;;;;;;;18.63;13.30;;;;;;;15.49;91.10;102370.91;5075734;28;20115;-36
2021/08/31 00:12:30;;;;;;;24.20;14.85;;;;;;;15.39;91.76;102367.88;5075739;28;20338;-36
2021/08/31 00:14:56;;;;;;;17.27;13.80;;;;;;;15.45;90.97;102365.06;5075719;28;20020;-36
2021/08/31 00:17:21;;;;;;;18.20;13.98;;;;;;;15.51;90.77;102366.06;5075230;28;20016;-36
2021/08/31 00:19:47;;;;;;;20.55;13.98;;;;;;;15.32;91.35;102354.31;5075714;28;20070;-36
2021/08/31 00:22:12;;;;;;;;;;;;;;;15.57;90.05;102373.34;5075712;28;20446;-36
2021/08/31 00:24:39;;;;;;;16.60;14.37;;;;;;;15.44;91.08;102373.47;5075045;28;19909;-36
2021/08/31 00:27:05;;;;;;;21.75;14.07;;;;;;;15.52;91.57;102380.50;5075568;28;20269;-36
2021/08/31 00:29:30;;;;;;;18.30;13.75;;;;;;;15.49;91.12;102381.00;5075503;28;20099;-36
2021/08/31 00:31:55;;;;;;;22.80;14.17;;;;;;;15.51;91.38;102382.41;5074975;28;20032;-36
2021/08/31 00:34:20;;;;;;;19.03;15.03;;;;;;;15.44;91.55;102374.31;5074965;28;20331;-36
2021/08/31 00:36:46;;;;;;;;;;;;;;;15.58;90.35;102375.00;5074635;28;20017;-36
2021/08/31 00:39:12;;;;;;;21.75;13.65;;;;;;;15.53;90.97;102372.13;5075505;28;19972;-36
2021/08/31 00:41:37;;;;;;;21.77;14.80;;;;;;;15.47;91.65;102381.22;5074839;28;20024;-36
2021/08/31 00:44:04;;;;;;;19.80;14.43;;;;;;;15.46;91.31;102374.06;5074741;28;20051;-36
2021/08/31 00:46:29;;;;;;;21.80;16.00;;;;;;;15.44;91.18;102381.66;5074796;28;20159;-36
2021/08/31 00:48:55;;;;;;;16.88;14.45;;;;;;;15.48;91.43;102379.31;5074455;28;20113;-36
2021/08/31 00:51:24;;;;;;;19.67;15.25;;;;;;;15.31;91.91;102363.53;5075108;28;20074;-36
2021/08/31 00:53:50;;;;;;;19.83;14.85;;;;;;;15.38;92.37;102374.41;5074778;28;20453;-36
2021/08/31 00:56:16;;;;;;;20.42;15.43;;;;;;;15.44;91.63;102378.94;5074463;28;20016;-36
2021/08/31 00:58:42;;;;;;;19.70;13.98;;;;;;;15.45;91.49;102378.69;5074520;28;20039;-36
2021/08/31 01:01:08;;;;;;;20.02;15.68;;;;;;;15.43;91.64;102389.00;5075147;28;20032;-36
2021/08/31 01:03:33;;;;;;;20.23;16.20;;;;;;;15.28;91.53;102380.38;5074629;28;20032;-36
2021/08/31 01:06:01;;;;;;;19.73;15.15;;;;;;;15.26;91.96;102368.00;5074874;28;20030;-36
2021/08/31 01:08:28;;;;;;;22.15;14.73;;;;;;;15.28;91.29;102387.72;5074219;28;20021;-36
2021/08/31 01:10:53;;;;;;;20.65;15.02;;;;;;;15.17;91.54;102376.47;5074731;28;20078;-36
2021/08/31 01:13:20;;;;;;;18.40;14.20;;;;;;;15.15;91.17;102378.59;5074207;28;20043;-36
2021/08/31 01:15:46;;;;;;;19.33;14.95;;;;;;;15.14;91.66;102374.22;5074434;28;20035;-36
2021/08/31 01:18:13;;;;;;;;;;;;;;;15.34;90.55;102390.34;5074484;28;20089;-36
2021/08/31 01:20:38;;;;;;;18.50;14.73;;;;;;;15.22;91.58;102388.59;5074113;28;19953;-36
2021/08/31 01:23:03;;;;;;;15.70;13.97;;;;;;;15.08;90.59;102385.16;5073501;28;20050;-36
2021/08/31 01:25:29;;;;;;;23.83;15.63;;;;;;;15.02;91.38;102391.50;5073596;28;20321;-36
2021/08/31 01:27:54;;;;;;;20.33;15.00;;;;;;;14.88;91.47;102375.28;5073717;28;20024;-36
2021/08/31 01:30:19;;;;;;;19.00;14.77;;;;;;;14.96;91.93;102400.56;5073821;28;20021;-36
2021/08/31 01:32:45;;;;;;;22.67;14.83;;;;;;;15.01;92.11;102393.41;5073888;28;20265;-36
2021/08/31 01:35:12;;;;;;;19.17;15.83;;;;;;;14.93;91.95;102397.25;5073616;28;20135;-36
2021/08/31 01:37:37;;;;;;;20.13;15.10;;;;;;;14.89;92.63;102393.28;5073887;28;20356;-36
2021/08/31 01:40:03;;;;;;;16.88;14.63;;;;;;;14.90;92.44;102397.69;5073734;28;20055;-36
2021/08/31 01:42:28;;;;;;;18.60;15.32;;;;;;;14.92;92.40;102397.44;5073965;28;20056;-36
2021/08/31 01:44:54;;;;;;;18.73;14.80;;;;;;;14.91;92.55;102398.50;5073672;28;20466;-36
2021/08/31 01:47:19;;;;;;;19.20;15.10;;;;;;;14.85;92.82;102399.41;5073437;28;20099;-36
2021/08/31 01:49:44;;;;;;;20.53;15.60;;;;;;;14.90;92.89;102396.84;5073466;28;20404;-36
2021/08/31 01:52:09;;;;;;;21.80;15.10;;;;;;;14.90;92.40;102396.84;5073577;28;20031;-36
2021/08/31 01:54:35;;;;;;;19.37;14.73;;;;;;;14.94;92.45;102401.63;5074008;28;20365;-36
2021/08/31 01:57:00;;;;;;;21.92;15.95;;;;;;;14.93;91.90;102410.00;5073569;28;20106;-36
2021/08/31 01:59:25;;;;;;;23.00;16.80;;;;;;;14.92;92.54;102416.50;5073610;28;20016;-36
2021/08/31 02:01:51;;;;;;;24.00;16.10;;;;;;;14.78;92.66;102407.59;5073857;28;20017;-36
2021/08/31 02:04:16;;;;;;;20.30;15.50;;;;;;;14.78;92.24;102409.50;5073262;28;20373;-36
2021/08/31 02:06:41;;;;;;;19.80;15.77;;;;;;;14.74;92.74;102416.44;5073351;28;20251;-36
2021/08/31 02:09:07;;;;;;;21.08;15.18;;;;;;;14.67;92.26;102417.31;5072849;28;20020;-36
2021/08/31 02:11:32;;;;;;;21.55;16.30;;;;;;;14.68;92.66;102407.25;5073609;28;20044;-36
2021/08/31 02:13:57;;;;;;;21.63;16.20;;;;;;;14.72;93.31;102424.84;5072807;28;20081;-36
2021/08/31 02:16:23;;;;;;;25.13;17.40;;;;;;;14.80;93.49;102430.03;5072896;28;20099;-36
2021/08/31 02:18:48;;;;;;;24.10;17.67;;;;;;;14.71;93.87;102422.34;5072828;28;20099;-36
2021/08/31 02:21:13;;;;;;;22.33;17.10;;;;;;;14.73;93.27;102415.59;5073791;28;20365;-36
2021/08/31 02:23:40;;;;;;;20.53;18.33;;;;;;;14.70;93.83;102420.69;5073002;28;20274;-36
2021/08/31 02:26:05;;;;;;;19.52;17.23;;;;;;;14.71;93.98;102416.91;5073262;28;20127;-36
2021/08/31 02:28:31;;;;;;;21.10;16.47;;;;;;;14.77;94.28;102424.16;5072960;28;20020;-36
2021/08/31 02:30:56;;;;;;;24.20;17.80;;;;;;;14.85;93.90;102421.19;5073181;28;20091;-36
2021/08/31 02:33:21;;;;;;;23.90;17.65;;;;;;;14.71;93.85;102412.28;5073081;28;20043;-36
2021/08/31 02:35:47;;;;;;;21.88;17.77;;;;;;;14.83;93.73;102426.00;5073082;28;20063;-36
2021/08/31 02:38:12;;;;;;;24.73;18.58;;;;;;;14.75;94.08;102418.13;5073358;28;20095;-36
2021/08/31 02:40:38;;;;;;;28.38;19.58;;;;;;;14.70;94.24;102410.63;5072803;28;20024;-36
2021/08/31 02:43:03;;;;;;;23.10;19.65;;;;;;;14.79;94.38;102422.09;5072512;28;20025;-36
2021/08/31 02:45:29;;;;;;;26.35;19.73;;;;;;;14.68;94.66;102407.25;5071562;28;20060;-36
2021/08/31 02:47:54;;;;;;;26.92;20.23;;;;;;;14.78;94.52;102428.56;5073531;28;20024;-36
2021/08/31 02:50:19;;;;;;;23.50;19.27;;;;;;;14.82;94.41;102430.63;5073577;28;20123;-36
2021/08/31 02:52:45;;;;;;;25.38;18.73;;;;;;;14.86;94.07;102420.13;5072866;28;20259;-36
2021/08/31 02:55:11;;;;;;;24.60;19.50;;;;;;;14.78;94.79;102426.66;5072552;28;20425;-36
2021/08/31 02:57:37;;;;;;;24.30;19.63;;;;;;;14.74;94.81;102419.16;5072762;28;20111;-36
2021/08/31 03:00:06;;;;;;;22.75;19.02;;;;;;;14.83;94.76;102434.19;5074046;28;20059;-36
2021/08/31 03:02:31;;;;;;;26.48;20.00;;;;;;;14.88;94.34;102432.47;5077118;28;20020;-36
2021/08/31 03:04:56;;;;;;;23.53;20.60;;;;;;;14.89;94.34;102425.16;5076232;28;20024;-36
2021/08/31 03:07:22;;;;;;;26.95;20.48;;;;;;;14.84;95.02;102425.81;5077224;28;20382;-36
2021/08/31 03:09:47;;;;;;;25.40;19.88;;;;;;;14.85;94.64;102424.75;5077117;28;20048;-36
2021/08/31 03:12:13;;;;;;;29.02;20.27;;;;;;;14.85;95.20;102423.91;5077244;28;20025;-36
2021/08/31 03:14:39;;;;;;;;;;;;;;;14.92;93.65;102424.69;5076793;28;20095;-36
2021/08/31 03:17:05;;;;;;;23.30;18.48;;;;;;;14.86;94.44;102420.13;5077095;28;20303;-36
2021/08/31 03:19:31;;;;;;;26.15;18.48;;;;;;;14.74;95.11;102411.00;5076050;28;20433;-36
2021/08/31 03:21:58;;;;;;;24.63;20.75;;;;;;;14.85;94.90;102424.75;5076270;28;20099;-36
2021/08/31 03:24:24;;;;;;;21.83;18.77;;;;;;;14.79;94.89;102416.63;5076409;28;20107;-36
2021/08/31 03:26:50;;;;;;;23.85;19.98;;;;;;;14.86;94.41;102425.56;5075954;28;20473;-36
2021/08/31 03:29:16;;;;;;;;;;;;;;;14.93;94.00;102427.22;5076575;28;20089;-36
2021/08/31 03:31:41;;;;;;;27.23;21.17;;;;;;;14.82;94.96;102429.78;5075894;28;20356;-36
2021/08/31 03:34:07;;;;;;;29.27;20.45;;;;;;;14.73;94.54;102409.31;5076058;28;20028;-36
2021/08/31 03:36:32;;;;;;;25.00;20.27;;;;;;;14.89;94.73;102422.41;5076456;28;20420;-36
2021/08/31 03:38:57;;;;;;;24.85;20.42;;;;;;;14.81;94.64;102422.69;5076693;28;20020;-36
2021/08/31 03:41:23;;;;;;;22.87;19.70;;;;;;;14.88;94.32;102420.72;5076550;28;20020;-36
2021/08/31 03:43:48;;;;;;;27.45;20.13;;;;;;;14.81;94.75;102419.97;5075606;28;20368;-36
2021/08/31 03:46:14;;;;;;;23.00;19.63;;;;;;;14.78;94.15;102413.06;5076165;28;20109;-36
2021/08/31 03:48:39;;;;;;;26.65;19.73;;;;;;;14.82;94.41;102435.25;5075859;28;20024;-36
2021/08/31 03:51:05;;;;;;;24.88;19.38;;;;;;;14.83;94.61;102426.84;5076289;28;20093;-36
2021/08/31 03:53:30;;;;;;;21.45;18.65;;;;;;;14.82;93.99;102421.63;5075566;28;20119;-36
2021/08/31 03:55:56;;;;;;;29.87;20.47;;;;;;;14.77;94.39;102421.44;5076015;28;20440;-36
2021/08/31 03:58:21;;;;;;;25.80;20.87;;;;;;;14.82;94.29;102424.34;5075312;28;20031;-36
2021/08/31 04:00:46;;;;;;;21.25;18.65;;;;;;;14.77;93.88;102416.00;5075766;28;20262;-36
2021/08/31 04:03:12;;;;;;;21.83;19.00;;;;;;;14.86;94.15;102431.84;5076069;28;20016;-36
2021/08/31 04:05:37;;;;;;;23.07;19.93;;;;;;;14.79;93.72;102419.34;5076412;28;20317;-36
2021/08/31 04:08:02;;;;;;;26.33;20.80;;;;;;;14.88;94.05;102431.63;5075519;28;20441;-36
2021/08/31 04:10:28;;;;;;;26.48;20.85;;;;;;;14.84;93.51;102433.16;5075633;28;20279;-36
2021/08/31 04:12:53;;;;;;;23.00;18.93;;;;;;;14.87;93.39;102435.41;5075048;28;20028;-36
2021/08/31 04:15:18;;;;;;;28.80;20.83;;;;;;;14.78;93.88;102431.28;5075417;28;20324;-36
2021/08/31 04:17:44;;;;;;;26.97;19.63;;;;;;;14.79;93.94;102441.16;5075292;28;20301;-36
2021/08/31 04:20:10;;;;;;;23.47;19.03;;;;;;;14.82;94.10;102440.69;5075442;28;20754;-36
2021/08/31 04:22:35;;;;;;;25.85;20.60;;;;;;;14.81;93.80;102456.19;5075001;28;20243;-36
2021/08/31 04:25:01;;;;;;;22.17;19.60;;;;;;;14.82;93.38;102457.03;5075238;28;20035;-36
2021/08/31 04:27:26;;;;;;;23.42;19.42;;;;;;;14.88;93.32;102461.59;5074889;28;20021;-36
2021/08/31 04:29:52;;;;;;;21.88;18.25;;;;;;;14.92;93.58;102463.66;5075168;28;20100;-36
2021/08/31 04:32:17;;;;;;;22.33;19.02;;;;;;;14.85;93.49;102462.88;5074723;28;20050;-36
2021/08/31 04:34:43;;;;;;;22.50;18.85;;;;;;;14.87;93.36;102460.75;5075383;28;20025;-36
2021/08/31 04:37:08;;;;;;;26.65;18.98;;;;;;;14.81;93.27;102472.53;5075416;28;20028;-36
2021/08/31 04:39:34;;;;;;;23.40;19.20;;;;;;;14.82;93.12;102466.03;5075253;28;20099;-36
2021/08/31 04:42:03;;;;;;;23.13;18.90;;;;;;;14.87;93.34;102473.53;5075550;28;20025;-36
2021/08/31 04:44:31;;;;;;;21.85;17.35;;;;;;;14.86;93.34;102474.59;5074856;28;20024;-36
2021/08/31 04:46:56;;;;;;;24.08;18.75;;;;;;;14.88;93.08;102470.63;5075346;28;20090;-36
2021/08/31 04:49:22;;;;;;;23.87;17.67;;;;;;;14.87;93.32;102477.09;5075291;28;20016;-36
2021/08/31 04:51:47;;;;;;;22.63;17.67;;;;;;;14.83;92.78;102473.13;5075095;28;20106;-36
2021/08/31 04:54:13;;;;;;;21.80;17.25;;;;;;;14.86;93.32;102478.16;5074413;28;20030;-36
2021/08/31 04:56:38;;;;;;;17.80;15.48;;;;;;;14.88;93.38;102473.34;5074688;28;20082;-36
2021/08/31 04:59:04;;;;;;;22.58;16.73;;;;;;;14.80;93.36;102473.59;5073975;28;20614;-36
2021/08/31 05:01:29;;;;;;;24.20;16.55;;;;;;;14.90;92.97;102487.56;5074814;28;20024;-36
2021/08/31 05:03:54;;;;;;;20.83;17.65;;;;;;;14.93;93.72;102489.00;5072849;28;20054;-36
2021/08/31 05:06:20;;;;;;;26.65;18.27;;;;;;;15.00;93.56;102484.34;5074329;28;20017;-36
2021/08/31 05:08:45;;;;;;;22.40;18.37;;;;;;;15.03;93.39;102483.06;5074803;28;20389;-36
2021/08/31 05:11:10;;;;;;;22.37;17.90;;;;;;;15.05;93.16;102489.97;5074730;28;20602;-36
2021/08/31 05:13:40;;;;;;;23.50;16.95;;;;;;;14.98;92.70;102477.44;5074446;28;20073;-36
2021/08/31 05:16:07;;;;;;;24.45;18.55;;;;;;;14.93;93.14;102498.03;5074412;28;20432;-36
2021/08/31 05:18:32;;;;;;;21.10;16.88;;;;;;;14.93;93.06;102486.28;5074061;28;20028;-36
2021/08/31 05:20:58;;;;;;;23.38;17.27;;;;;;;14.95;92.98;102495.06;5074097;28;20457;-36
2021/08/31 05:23:23;;;;;;;23.27;17.55;;;;;;;14.93;93.32;102489.00;5073613;28;20361;-36
2021/08/31 05:25:49;;;;;;;22.90;17.40;;;;;;;14.96;92.98;102498.63;5074028;28;20058;-36
2021/08/31 05:28:14;;;;;;;23.50;16.58;;;;;;;14.92;93.51;102495.50;5072393;28;20039;-36
2021/08/31 05:30:39;;;;;;;24.05;15.90;;;;;;;14.99;93.12;102496.31;5074772;28;20029;-36
2021/08/31 05:33:05;;;;;;;23.73;16.05;;;;;;;14.96;92.85;102491.28;5074230;28;20112;-36
2021/08/31 05:35:30;;;;;;;20.63;16.33;;;;;;;15.05;93.21;102506.31;5074216;28;20048;-36
2021/08/31 05:37:55;;;;;;;21.37;17.27;;;;;;;15.06;93.04;102504.41;5074360;28;20689;-36
2021/08/31 05:40:21;;;;;;;22.00;16.27;;;;;;;15.03;92.87;102504.84;5074267;28;20099;-36
2021/08/31 05:42:47;;;;;;;22.10;15.65;;;;;;;14.99;93.61;102506.38;5073714;28;20074;-36
2021/08/31 05:45:13;;;;;;;22.75;15.88;;;;;;;15.01;93.45;102513.25;5073362;28;20036;-36
2021/08/31 05:47:38;;;;;;;20.00;15.90;;;;;;;15.03;93.52;102511.16;5071919;28;20506;-36
2021/08/31 05:50:05;;;;;;;22.60;15.68;;;;;;;15.12;93.17;102512.53;5073579;28;20024;-36
2021/08/31 05:52:30;;;;;;;22.50;15.82;;;;;;;15.12;92.87;102512.53;5074035;28;20024;-36
2021/08/31 05:54:58;;;;;;;25.45;15.75;;;;;;;15.14;92.89;102518.63;5073164;28;20107;-36
2021/08/31 05:57:24;;;;;;;27.77;16.73;;;;;;;15.08;93.79;102505.88;5073598;28;20025;-36
2021/08/31 05:59:49;;;;;;;20.02;15.48;;;;;;;15.17;92.79;102525.50;5073093;28;20019;-36
2021/08/31 06:02:17;;;;;;;21.38;14.88;;;;;;;15.23;92.80;102524.63;5073246;28;20471;-36
2021/08/31 06:04:43;;;;;;;23.23;13.73;;;;;;;15.25;92.39;102524.41;5073297;28;20024;-36
2021/08/31 06:07:10;;;;;;;20.92;12.82;;;;;;;15.08;92.42;102505.03;5074100;28;20032;-36
2021/08/31 06:09:37;;;;;;;21.95;12.70;;;;;;;15.31;92.60;102531.69;5073183;28;20103;-36
2021/08/31 06:12:05;;;;;;;18.83;12.32;;;;;;;15.34;92.73;102528.53;5074022;28;20037;-36
2021/08/31 06:14:30;;;;;;;19.52;13.00;;;;;;;15.34;92.49;102525.81;5073322;28;20093;-36
2021/08/31 06:16:55;;;;;;;17.27;12.00;;;;;;;15.45;92.55;102535.97;5072912;28;20516;-36
2021/08/31 06:19:21;;;;;;;20.50;13.00;;;;;;;15.41;92.44;102529.31;5073186;28;20274;-36
2021/08/31 06:21:46;;;;;;;16.92;11.05;;;;;;;15.42;91.99;102531.81;5073815;28;20258;-36
2021/08/31 06:24:12;;;;;;;17.57;11.17;;;;;;;15.45;92.01;102528.63;5072896;28;20028;-36
2021/08/31 06:26:38;;;;;;;25.27;12.85;;;;;;;15.49;92.02;102522.75;5073066;28;20259;-36
2021/08/31 06:29:03;;;;;;;18.00;11.20;;;;;;;15.50;91.67;102525.25;5072696;28;20032;-36
2021/08/31 06:31:28;;;;;;;16.13;12.67;;;;;;;15.65;91.61;102535.84;5072986;28;20251;-36
2021/08/31 06:33:54;;;;;;;20.20;12.50;;;;;;;15.69;91.09;102539.78;5072278;28;20108;-36
2021/08/31 06:36:19;;;;;;;19.02;11.55;;;;;;;15.76;90.97;102537.00;5072943;28;20103;-36
2021/08/31 06:38:44;;;;;;;;;;;;;;;15.87;91.24;102530.81;5073058;28;20029;-36
2021/08/31 06:41:09;;;;;;;21.00;11.20;;;;;;;15.82;89.94;102541.56;5073191;28;19913;-36
2021/08/31 06:43:35;;;;;;;14.13;10.07;;;;;;;15.86;90.03;102538.16;5073345;28;20282;-36
2021/08/31 06:46:00;;;;;;;17.48;10.77;;;;;;;15.85;89.77;102533.75;5073166;28;20047;-36
2021/08/31 06:48:25;;;;;;;;;;;;;;;16.01;90.61;102536.97;5073457;28;20028;-36
2021/08/31 06:50:51;;;;;;;16.20;9.68;;;;;;;16.04;89.78;102534.59;5073016;28;19958;-36
2021/08/31 06:53:16;;;;;;;14.50;10.23;;;;;;;16.10;89.96;102533.69;5072726;28;20028;-36
2021/08/31 06:55:41;;;;;;;;;;;;;;;16.22;89.99;102542.81;5073180;28;20449;-36
2021/08/31 06:58:08;;;;;;;15.82;9.23;;;;;;;16.21;88.91;102545.78;5073028;28;19904;-36
2021/08/31 07:00:33;;;;;;;;;;;;;;;16.32;88.96;102547.75;5073417;28;20052;-36
2021/08/31 07:02:58;;;;;;;18.37;9.13;;;;;;;16.25;89.58;102547.00;5073121;28;20308;-36
2021/08/31 07:05:23;;;;;;;18.20;9.43;;;;;;;16.24;88.81;102548.03;5073487;28;20723;-36
2021/08/31 07:07:49;;;;;;;;;;;;;;;16.39;89.08;102550.38;5073390;28;20111;-36
2021/08/31 07:10:14;;;;;;;17.60;8.90;;;;;;;16.35;88.50;102538.28;5072758;28;20252;-36
2021/08/31 07:12:39;;;;;;;17.80;9.13;;;;;;;16.49;87.57;102545.22;5072663;28;20714;-36
2021/08/31 07:15:05;;;;;;;15.77;8.65;;;;;;;16.52;87.26;102552.13;5072809;28;20699;-36
2021/08/31 07:17:31;;;;;;;29.30;8.10;;;;;;;16.63;87.04;102557.63;5073029;28;20032;-36
2021/08/31 07:19:56;;;;;;;12.93;9.00;;;;;;;16.63;85.88;102551.34;5072565;28;20360;-36
2021/08/31 07:22:21;;;;;;;23.60;9.00;;;;;;;16.82;86.62;102565.84;5072745;28;20576;-36
2021/08/31 07:24:47;;;;;;;15.75;9.25;;;;;;;16.80;86.61;102557.03;5072510;28;20741;-36
2021/08/31 07:27:13;;;;;;;;;;;;;;;16.93;86.66;102574.09;5072621;28;20042;-36
2021/08/31 07:29:38;;;;;;;14.25;7.95;;;;;;;16.78;84.80;102573.66;5073010;28;19905;-36
2021/08/31 07:32:04;;;;;;;14.82;8.20;;;;;;;16.71;85.26;102575.63;5072668;28;20025;-36
2021/08/31 07:34:29;;;;;;;;;;;;;;;16.82;85.96;102569.41;5072674;28;20085;-36
2021/08/31 07:36:55;;;;;;;21.33;7.93;;;;;;;16.58;84.27;102562.13;5072448;28;20121;-36
2021/08/31 07:39:21;;;;;;;14.73;7.05;;;;;;;16.60;84.32;102574.50;5072103;28;20273;-36
2021/08/31 07:41:47;;;;;;;11.43;6.00;;;;;;;16.53;83.81;102565.53;5072022;28;20024;-36
2021/08/31 07:44:12;;;;;;;13.90;6.85;;;;;;;16.58;83.59;102571.16;5072004;28;20032;-36
2021/08/31 07:46:40;;;;;;;15.95;7.30;;;;;;;16.75;84.47;102581.50;5074671;28;20024;-36
2021/08/31 07:49:06;;;;;;;16.42;6.82;;;;;;;16.80;83.91;102582.47;5075807;28;20086;-36
2021/08/31 07:51:31;;;;;;;13.53;6.90;;;;;;;16.86;82.10;102584.25;5075607;28;20032;-36
2021/08/31 07:53:56;;;;;;;13.40;7.13;;;;;;;16.84;81.92;102580.13;5075413;28;20305;-36
2021/08/31 07:56:21;;;;;;;;;;;;;;;17.06;84.03;102585.88;5076293;28;20034;-36
2021/08/31 07:58:47;;;;;;;13.03;7.30;;;;;;;17.08;81.00;102581.00;5075888;28;19904;-36
2021/08/31 08:01:12;;;;;;;13.48;6.50;;;;;;;17.00;81.22;102590.38;5075742;28;20246;-36
2021/08/31 08:03:37;;;;;;;;;;;;;;;17.13;82.90;102583.88;5075787;28;20038;-36
2021/08/31 08:06:03;;;;;;;12.63;6.27;;;;;;;17.01;81.53;102583.03;5075850;28;19951;-36
2021/08/31 08:08:28;;;;;;;15.00;8.45;;;;;;;16.91;82.87;102568.00;5075783;28;20642;-36
2021/08/31 08:10:53;;;;;;;;;;;;;;;17.12;83.43;102587.69;5076037;28;20530;-36
2021/08/31 08:13:19;;;;;;;13.82;7.18;;;;;;;16.92;82.91;102568.84;5075440;28;19908;-36
2021/08/31 08:15:44;;;;;;;;;;;;;;;17.14;82.80;102586.41;5076114;28;20112;-36
2021/08/31 08:18:10;;;;;;;15.50;6.93;;;;;;;17.08;81.66;102587.34;5075448;28;19904;-36
2021/08/31 08:20:37;;;;;;;14.40;7.85;;;;;;;17.06;82.54;102588.63;5076023;28;20024;-36
2021/08/31 08:23:02;;;;;;;13.70;6.90;;;;;;;17.11;81.54;102592.31;5075244;28;20020;-36
2021/08/31 08:25:27;;;;;;;15.82;7.68;;;;;;;17.12;82.11;102587.69;5075599;28;20028;-36
2021/08/31 08:27:53;;;;;;;;;;;;;;;17.29;82.88;102599.66;5075948;28;20024;-36
2021/08/31 08:30:18;;;;;;;18.45;8.00;;;;;;;17.24;81.48;102592.13;5074891;28;19904;-36
2021/08/31 08:32:43;;;;;;;;;;;;;;;17.36;82.46;102603.09;5075333;28;20094;-36
2021/08/31 08:35:12;;;;;;;15.35;8.10;;;;;;;17.26;80.71;102589.16;5075152;28;19953;-36
2021/08/31 08:37:37;;;;;;;17.60;7.90;;;;;;;17.22;82.03;102588.78;5075053;28;20081;-36
2021/08/31 08:40:04;;;;;;;13.15;8.02;;;;;;;17.35;80.46;102595.13;5074940;28;20107;-36
2021/08/31 08:42:30;;;;;;;15.13;7.65;;;;;;;17.50;81.76;102601.00;5075218;28;20020;-36
2021/08/31 08:44:56;;;;;;;14.60;7.95;;;;;;;17.66;79.95;102597.56;5075625;28;20025;-36
2021/08/31 08:47:21;;;;;;;13.35;7.13;;;;;;;17.49;79.92;102599.34;5074676;28;20024;-36
2021/08/31 08:49:49;;;;;;;13.65;7.63;;;;;;;17.51;79.13;102600.75;5074500;28;20051;-36
2021/08/31 08:52:15;;;;;;;12.95;7.75;;;;;;;17.60;79.09;102594.94;5074648;28;20433;-36
2021/08/31 08:54:42;;;;;;;13.18;7.20;;;;;;;17.63;79.13;102599.97;5074631;28;20101;-36
2021/08/31 08:57:08;;;;;;;16.65;7.25;;;;;;;17.57;79.20;102611.81;5073592;28;20031;-36
2021/08/31 08:59:33;;;;;;;14.20;7.65;;;;;;;17.68;80.63;102616.50;5074518;28;20024;-36
2021/08/31 09:01:58;;;;;;;;;;;;;;;17.87;81.05;102609.06;5074992;28;20100;-36
2021/08/31 09:04:47;;;;;;;12.43;6.80;;;;;;;17.80;79.33;102616.53;5075121;28;19915;-36
2021/08/31 09:07:18;;;;;;;14.35;7.00;;;;;;;17.75;79.31;102618.06;5074703;28;20036;-36
2021/08/31 09:09:46;;;;;;;12.98;7.03;;;;;;;17.68;77.99;102613.75;5074615;28;20024;-36
2021/08/31 09:12:34;;;;;;;12.95;6.90;;;;;;;17.79;79.96;102610.22;5074831;28;20063;-36
2021/08/31 09:15:30;;;;;;;16.65;6.93;;;;;;;17.89;79.61;102615.94;5073957;28;20402;-36
2021/08/31 09:18:10;;;;;;;10.15;6.72;;;;;;;17.88;78.57;102618.94;5074388;28;20409;-36
2021/08/31 09:20:40;;;;;;;14.50;7.40;;;;;;;17.90;78.81;102617.59;5074368;28;20044;-36
2021/08/31 09:23:08;;;;;;;16.27;7.75;;;;;;;17.83;78.60;102610.59;5074879;28;20111;-36
2021/08/31 09:25:34;;;;;;;15.93;7.75;;;;;;;17.89;78.67;102617.84;5073748;28;20055;-36
2021/08/31 09:28:00;;;;;;;13.90;7.75;;;;;;;17.95;79.21;102605.94;5073804;28;20041;-36
2021/08/31 09:30:27;;;;;;;;;;;;;;;18.17;79.33;102612.50;5074625;28;20029;-36
2021/08/31 09:33:12;;;;;;;15.15;6.72;;;;;;;18.08;77.82;102613.94;5074175;28;19931;-36
2021/08/31 09:35:40;;;;;;;15.18;7.47;;;;;;;18.09;78.10;102612.03;5074321;28;20024;-36
2021/08/31 09:38:12;;;;;;;14.45;6.93;;;;;;;18.05;77.55;102613.56;5073945;28;20055;-36
2021/08/31 09:40:46;;;;;;;13.60;6.78;;;;;;;18.03;78.37;102611.06;5074308;28;20028;-36
2021/08/31 09:43:17;;;;;;;14.88;7.15;;;;;;;18.13;77.86;102615.94;5073710;28;20476;-36
2021/08/31 09:45:43;;;;;;;15.43;7.28;;;;;;;18.11;78.56;102610.72;5074432;28;20412;-36
2021/08/31 09:48:12;;;;;;;13.75;7.00;;;;;;;18.23;77.48;102621.66;5073603;28;20476;-36
2021/08/31 09:50:39;;;;;;;15.38;7.53;;;;;;;18.32;76.81;102619.41;5073481;28;20365;-36
2021/08/31 09:53:06;;;;;;;10.60;6.65;;;;;;;18.38;76.19;102616.53;5074014;28;20024;-36
2021/08/31 09:55:31;;;;;;;11.05;7.05;;;;;;;18.48;76.91;102618.66;5073403;28;20108;-36
2021/08/31 09:58:15;;;;;;;;;;;;;;;18.64;77.40;102623.41;5073881;28;20056;-36
2021/08/31 10:00:44;;;;;;;11.38;6.50;;;;;;;18.61;76.20;102610.16;5073368;28;19943;-36
2021/08/31 10:03:10;;;;;;;11.57;6.70;;;;;;;18.81;74.40;102612.53;5073592;28;20035;-36
2021/08/31 10:05:37;;;;;;;10.63;6.00;;;;;;;18.81;73.88;102620.75;5073283;28;20086;-36
2021/08/31 10:08:03;;;;;;;9.95;6.00;;;;;;;18.79;74.37;102622.91;5073316;28;20097;-36
2021/08/31 10:10:29;;;;;;;;;;;;;;;18.95;75.32;102635.84;5073855;28;20395;-36
2021/08/31 10:12:56;;;;;;;20.42;7.95;;;;;;;18.75;73.79;102628.03;5073822;28;19916;-36
2021/08/31 10:15:22;;;;;;;13.50;6.97;;;;;;;18.73;74.07;102626.59;5073302;28;20361;-36
2021/08/31 10:17:50;;;;;;;;;;;;;;;18.91;75.28;102620.13;5073350;28;20016;-36
2021/08/31 10:20:21;;;;;;;10.38;5.93;;;;;;;18.89;73.17;102630.50;5073224;28;19947;-36
2021/08/31 10:22:48;;;;;;;11.88;6.20;;;;;;;18.90;72.79;102610.25;5073872;28;20108;-36
2021/08/31 10:25:14;;;;;;;12.40;7.03;;;;;;;18.95;73.72;102622.13;5073333;28;20454;-36
2021/08/31 10:27:42;;;;;;;13.20;6.43;;;;;;;19.01;72.54;102626.63;5073098;28;20024;-36
2021/08/31 10:30:20;;;;;;;9.98;6.38;;;;;;;19.10;73.51;102627.09;5073038;28;20036;-34
2021/08/31 10:32:54;;;;;;;13.30;6.70;;;;;;;19.41;70.81;102622.97;5073530;28;20074;-36
2021/08/31 10:35:32;;;;;;;13.68;6.32;;;;;;;19.46;71.22;102623.06;5073293;28;20111;-36
2021/08/31 10:37:58;;;;;;;12.18;6.50;;;;;;;19.48;69.75;102617.34;5072861;28;20025;-36
2021/08/31 10:40:37;;;;;;;13.45;5.88;;;;;;;19.62;69.55;102617.88;5072895;28;20471;-36
2021/08/31 10:43:08;;;;;;;12.10;6.22;;;;;;;19.70;68.22;102614.72;5072914;28;20021;-36
2021/08/31 10:45:36;;;;;;;13.20;6.25;;;;;;;19.80;68.89;102626.69;5072741;28;20415;-36
2021/08/31 10:48:20;;;;;;;10.25;6.10;;;;;;;19.88;70.55;102625.47;5072367;28;20086;-36
2021/08/31 10:50:49;;;;;;;12.27;5.97;;;;;;;19.86;68.65;102621.28;5072842;28;20024;-36
2021/08/31 10:53:44;;;;;;;13.80;5.90;;;;;;;19.94;69.02;102618.94;5072491;28;20107;-36
2021/08/31 10:56:25;;;;;;;11.00;5.72;;;;;;;19.86;68.36;102624.03;5073257;28;20390;-36
2021/08/31 10:59:01;;;;;;;10.38;5.63;;;;;;;19.87;67.45;102626.53;5072949;28;20419;-36
2021/08/31 11:01:38;;;;;;;11.10;5.70;;;;;;;19.93;67.29;102624.72;5072735;28;20028;-36
2021/08/31 11:04:25;;;;;;;8.93;5.47;;;;;;;19.94;68.77;102623.63;5072942;28;20028;-36
2021/08/31 11:06:55;;;;;;;;;;;;;;;20.18;67.13;102630.56;5073082;28;20074;-36
2021/08/31 11:09:22;;;;;;;9.85;5.28;;;;;;;20.45;64.16;102627.94;5073118;28;19909;-36
2021/08/31 11:11:58;;;;;;;8.65;5.32;;;;;;;20.31;65.20;102637.63;5073177;28;20056;-36
2021/08/31 11:14:23;;;;;;;8.55;4.82;;;;;;;20.29;65.85;102626.88;5072519;28;20051;-36
2021/08/31 11:16:49;;;;;;;;;;;;;;;20.41;66.38;102631.47;5072969;28;20445;-36